Time;durP1;ratioP1;P1;durP2;ratioP2;P2;SDS_P1;SDS_P2;PMS_P1;PMS_P2;Temp;Humidity;BMP_temperature;BMP_pressure;BME280_temperature;BME280_humidity;BME280_pressure;Samples;Min_cycle;Max_cycle;Signal;HPM_P1;HPM_P2
2023/12/29 00:01:33;;;;;;;4.30;3.55;;;;;;;4.95;100.00;100921.91;5026733;28;20025;-76
2023/12/29 00:03:59;;;;;;;11.55;11.07;;;;;;;5.63;100.00;101023.72;5028409;28;20079;-76
2023/12/29 00:06:24;;;;;;;5.88;5.40;;;;;;;5.57;100.00;101016.63;5006890;28;20629;-77
2023/12/29 00:08:51;;;;;;;0.52;0.52;;;;;;;5.36;100.00;100992.50;5026481;28;20440;-77
2023/12/29 00:11:20;;;;;;;1.20;1.15;;;;;;;5.65;100.00;101041.13;5022775;28;20413;-76
2023/12/29 00:13:47;;;;;;;1.05;1.00;;;;;;;5.74;100.00;101060.50;5024100;28;20398;-75
2023/12/29 00:16:13;;;;;;;0.38;0.38;;;;;;;5.27;100.00;100987.94;5028106;28;20124;-75
2023/12/29 00:18:38;;;;;;;0.40;0.40;;;;;;;5.06;100.00;100939.59;5022372;28;20148;-74
2023/12/29 00:21:05;;;;;;;4.65;4.18;;;;;;;5.15;100.00;100958.91;5023929;28;20437;-77
2023/12/29 00:23:31;;;;;;;11.48;10.73;;;;;;;5.47;100.00;101015.44;5025245;28;20072;-76
2023/12/29 00:25:57;;;;;;;6.47;3.03;;;;;;;5.41;100.00;100985.75;5021990;28;20505;-78
2023/12/29 00:28:22;;;;;;;0.50;0.50;;;;;;;5.50;100.00;101006.81;5021715;28;20053;-77
2023/12/29 00:30:48;;;;;;;6.15;5.85;;;;;;;5.45;100.00;101006.69;5022631;28;20056;-77
2023/12/29 00:33:13;;;;;;;3.05;1.50;;;;;;;5.26;100.00;100944.53;5016435;28;20144;-77
2023/12/29 00:35:39;;;;;;;1.15;1.10;;;;;;;5.66;100.00;101014.25;5004957;28;20052;-77
2023/12/29 00:38:06;;;;;;;0.85;0.85;;;;;;;5.79;100.00;101015.50;5021220;28;20045;-77
2023/12/29 00:40:34;;;;;;;1.15;1.05;;;;;;;5.81;100.00;101024.25;5019824;28;20068;-77
2023/12/29 00:43:01;;;;;;;2.17;2.08;;;;;;;5.75;100.00;101031.00;5021367;28;20034;-77
2023/12/29 00:45:32;;;;;;;0.40;0.40;;;;;;;5.11;100.00;100918.06;5022967;28;20050;-78
2023/12/29 00:48:02;;;;;;;0.60;0.43;;;;;;;5.67;100.00;101002.16;5012294;28;20130;-76
2023/12/29 00:50:28;;;;;;;0.45;0.45;;;;;;;5.16;100.00;100924.28;5019173;28;20041;-77
2023/12/29 00:52:54;;;;;;;2.50;2.30;;;;;;;5.60;100.00;101010.63;5021925;28;20042;-75
2023/12/29 00:55:19;;;;;;;4.38;4.05;;;;;;;5.01;100.00;100909.06;5021523;28;20045;-76
2023/12/29 00:57:45;;;;;;;6.05;5.78;;;;;;;4.99;100.00;100916.84;5025308;28;20076;-77
2023/12/29 01:00:12;;;;;;;3.80;3.55;;;;;;;5.35;100.00;100995.97;5023637;28;20696;-77
2023/12/29 01:02:38;;;;;;;0.40;0.40;;;;;;;5.56;100.00;101011.34;5024385;28;20048;-78
2023/12/29 01:05:06;;;;;;;0.68;0.68;;;;;;;5.29;100.00;100984.53;5024163;28;20088;-75
2023/12/29 01:07:32;;;;;;;4.97;4.75;;;;;;;5.16;100.00;100947.69;5020982;28;20033;-76
2023/12/29 01:09:57;;;;;;;1.65;1.55;;;;;;;5.03;100.00;100902.22;5021469;28;20075;-76
2023/12/29 01:12:24;;;;;;;5.03;4.82;;;;;;;5.75;100.00;101036.22;5028769;28;20392;-74
2023/12/29 01:14:53;;;;;;;0.30;0.30;;;;;;;5.82;100.00;101040.75;5036382;28;20107;-76
2023/12/29 01:17:22;;;;;;;63.75;30.17;;;;;;;5.20;100.00;100924.41;5024005;28;20568;-76
2023/12/29 01:19:47;;;;;;;0.52;0.52;;;;;;;5.23;100.00;100921.91;5025359;28;20053;-78
2023/12/29 01:22:13;;;;;;;0.40;0.40;;;;;;;5.58;100.00;101005.34;5028723;28;20568;-76
2023/12/29 01:24:38;;;;;;;0.82;0.82;;;;;;;5.63;100.00;101002.88;5029107;28;20132;-77
2023/12/29 01:27:05;;;;;;;2.92;0.60;;;;;;;5.57;100.00;100998.41;5024949;28;20052;-77
2023/12/29 01:29:30;;;;;;;1.08;1.08;;;;;;;5.66;100.00;101015.97;5025244;28;20408;-78
2023/12/29 01:31:56;;;;;;;0.30;0.30;;;;;;;4.26;100.00;100776.81;5021355;28;20041;-77
2023/12/29 01:34:21;;;;;;;0.30;0.30;;;;;;;5.68;100.00;101014.31;5018374;28;20144;-76
2023/12/29 01:36:47;;;;;;;0.40;0.40;;;;;;;5.66;100.00;100996.03;5028600;28;20688;-75
2023/12/29 01:39:12;;;;;;;1.10;1.10;;;;;;;4.96;100.00;100862.13;5028940;28;20119;-77
2023/12/29 01:41:38;;;;;;;1.08;0.75;;;;;;;5.56;100.00;100965.38;5028394;28;20051;-76
2023/12/29 01:44:16;;;;;;;0.75;0.75;;;;;;;5.76;100.00;101006.72;5024125;28;20069;-77
2023/12/29 01:46:42;;;;;;;2.20;2.10;;;;;;;4.52;100.00;100801.91;5035355;28;20706;-76
2023/12/29 01:49:08;;;;;;;2.40;2.30;;;;;;;5.64;100.00;100976.00;5034425;28;20034;-75
2023/12/29 01:51:33;;;;;;;1.25;1.17;;;;;;;5.67;100.00;100982.19;5031941;28;20136;-77
2023/12/29 01:53:59;;;;;;;15.65;11.35;;;;;;;5.21;100.00;100905.38;5033145;28;20061;-76
2023/12/29 01:56:27;;;;;;;3.72;1.83;;;;;;;5.14;100.00;100899.94;5023442;28;20140;-76
2023/12/29 01:58:55;;;;;;;1.20;1.20;;;;;;;5.41;100.00;100954.53;5006134;28;20046;-77
2023/12/29 02:01:21;;;;;;;2.47;2.33;;;;;;;5.42;100.00;100958.88;5033693;28;20063;-77
2023/12/29 02:03:47;;;;;;;2.10;2.00;;;;;;;5.61;100.00;100988.94;5022218;28;20390;-78
2023/12/29 02:06:15;;;;;;;2.70;1.40;;;;;;;5.56;100.00;100970.56;5018928;28;20053;-76
2023/12/29 02:08:43;;;;;;;0.40;0.40;;;;;;;5.06;100.00;100879.78;5027230;28;20053;-77
2023/12/29 02:11:09;;;;;;;0.25;0.25;;;;;;;4.91;100.00;100873.25;5023874;28;20065;-77
2023/12/29 02:13:35;;;;;;;1.55;1.45;;;;;;;5.34;100.00;100968.16;5025277;28;20028;-76
2023/12/29 02:16:18;;;;;;;10.65;9.80;;;;;;;5.03;100.00;100941.22;5030700;28;20515;-77
2023/12/29 02:18:46;;;;;;;;;;;;;;;5.41;100.00;100964.94;5031172;28;20037;-76
2023/12/29 02:21:13;;;;;;;5.18;4.88;;;;;;;5.40;100.00;100970.97;5009374;28;19972;-76
2023/12/29 02:23:38;;;;;;;0.75;0.75;;;;;;;5.23;100.00;100952.25;5028865;28;20152;-76
2023/12/29 02:26:09;;;;;;;5.57;5.15;;;;;;;5.25;100.00;100948.84;5018642;28;20037;-75
2023/12/29 02:28:42;;;;;;;0.40;0.40;;;;;;;4.89;100.00;100886.19;5026096;28;20569;-74
2023/12/29 02:31:16;;;;;;;0.40;0.40;;;;;;;5.28;100.00;100951.53;5023933;28;20041;-76
2023/12/29 02:33:44;;;;;;;0.50;0.50;;;;;;;5.21;100.00;100948.72;5022756;28;20051;-76
2023/12/29 02:36:12;;;;;;;0.65;0.65;;;;;;;4.68;100.00;100878.59;5020969;28;20143;-76
2023/12/29 02:38:39;;;;;;;3.03;2.90;;;;;;;5.05;100.00;100940.44;5019556;28;20050;-77
2023/12/29 02:41:05;;;;;;;2.60;2.38;;;;;;;4.95;100.00;100940.13;5021200;28;20106;-77
2023/12/29 02:43:33;;;;;;;6.60;6.30;;;;;;;5.04;100.00;100930.88;5024447;28;20036;-75
2023/12/29 02:45:59;;;;;;;0.20;0.20;;;;;;;4.94;100.00;100914.94;5024731;28;20035;-78
2023/12/29 02:48:25;;;;;;;2.40;2.30;;;;;;;4.44;100.00;100864.00;5036290;28;20049;-79
2023/12/29 02:50:50;;;;;;;3.58;3.30;;;;;;;4.88;100.00;100932.97;5023400;28;20515;-77
2023/12/29 02:53:16;;;;;;;2.10;1.98;;;;;;;4.35;100.00;100813.47;5023032;28;20056;-76
2023/12/29 02:55:41;;;;;;;2.05;1.95;;;;;;;3.80;100.00;100726.91;5019028;28;20052;-76
2023/12/29 02:58:08;;;;;;;1.77;1.67;;;;;;;4.44;100.00;100837.13;5032019;28;20086;-77
2023/12/29 03:00:34;;;;;;;3.83;3.30;;;;;;;4.83;100.00;100928.50;5028059;28;20045;-76
2023/12/29 03:02:59;;;;;;;16.40;14.85;;;;;;;4.93;100.00;100914.06;5019450;28;20099;-77
2023/12/29 03:05:25;;;;;;;0.32;0.32;;;;;;;4.31;100.00;100809.91;5023252;28;20050;-75
2023/12/29 03:07:52;;;;;;;1.65;1.55;;;;;;;4.95;100.00;100917.59;5020840;28;20640;-78
2023/12/29 03:10:17;;;;;;;0.50;0.50;;;;;;;4.86;100.00;100914.69;5029345;28;20037;-77
2023/12/29 03:12:44;;;;;;;0.50;0.50;;;;;;;4.93;100.00;100929.66;5026509;28;20041;-76
2023/12/29 03:15:10;;;;;;;0.30;0.30;;;;;;;4.91;100.00;100918.31;5025467;28;20048;-75
2023/12/29 03:17:36;;;;;;;4.78;4.57;;;;;;;3.94;100.00;100766.28;5024576;28;20045;-75
2023/12/29 03:20:04;;;;;;;0.50;0.45;;;;;;;4.22;100.00;100818.28;5023616;28;20668;-75
2023/12/29 03:22:30;;;;;;;0.77;0.77;;;;;;;4.18;100.00;100818.13;5029266;28;20548;-75
2023/12/29 03:24:55;;;;;;;0.30;0.30;;;;;;;4.13;100.00;100817.09;5021601;28;20065;-74
2023/12/29 03:27:21;;;;;;;3.83;3.63;;;;;;;4.83;100.00;100925.88;5026101;28;20171;-76
2023/12/29 03:29:48;;;;;;;1.02;1.00;;;;;;;4.12;100.00;100800.66;5026243;28;20111;-76
2023/12/29 03:32:15;;;;;;;8.52;7.97;;;;;;;4.61;100.00;100863.66;5023689;28;20049;-77
2023/12/29 03:34:40;;;;;;;11.13;10.13;;;;;;;4.78;100.00;100909.25;5016177;28;20068;-78
2023/12/29 03:37:06;;;;;;;0.68;0.68;;;;;;;4.35;100.00;100831.66;5015555;28;20227;-76
2023/12/29 03:39:35;;;;;;;0.93;0.90;;;;;;;4.82;100.00;100918.03;5022596;28;20070;-76
2023/12/29 03:42:01;;;;;;;3.33;3.13;;;;;;;4.21;100.00;100820.81;5024476;28;20182;-75
2023/12/29 03:44:26;;;;;;;2.90;2.70;;;;;;;4.78;100.00;100921.38;5019226;28;20217;-77
2023/12/29 03:46:52;;;;;;;10.48;9.73;;;;;;;4.62;100.00;100914.81;5011756;28;20041;-76
2023/12/29 03:49:17;;;;;;;1.30;1.30;;;;;;;4.16;100.00;100805.09;5023399;28;20037;-77
2023/12/29 03:51:43;;;;;;;0.40;0.40;;;;;;;4.69;100.00;100897.69;5007136;28;20053;-77
2023/12/29 03:54:08;;;;;;;1.70;1.65;;;;;;;4.09;100.00;100786.66;5020276;28;20037;-77
2023/12/29 03:56:34;;;;;;;3.70;3.47;;;;;;;4.53;100.00;100863.41;5019340;28;20060;-77
2023/12/29 03:59:00;;;;;;;1.70;1.60;;;;;;;4.53;100.00;100865.13;5020919;28;20045;-76
2023/12/29 04:01:27;;;;;;;0.35;0.35;;;;;;;4.68;100.00;100890.72;5019736;28;20041;-76
2023/12/29 04:03:53;;;;;;;7.18;5.88;;;;;;;4.32;100.00;100842.81;5024617;28;20042;-76
2023/12/29 04:06:18;;;;;;;2.05;1.95;;;;;;;3.98;100.00;100797.59;5021751;28;20057;-76
2023/12/29 04:08:43;;;;;;;3.08;2.92;;;;;;;4.61;100.00;100918.22;5017896;28;20529;-80
2023/12/29 04:11:09;;;;;;;2.97;1.20;;;;;;;4.64;100.00;100923.53;5022265;28;20068;-73
2023/12/29 04:13:35;;;;;;;3.72;3.53;;;;;;;4.12;100.00;100802.34;5019099;28;20068;-74
2023/12/29 04:16:01;;;;;;;10.40;9.73;;;;;;;4.20;100.00;100824.25;5013899;28;20051;-74
2023/12/29 04:18:26;;;;;;;2.83;2.72;;;;;;;3.91;100.00;100786.94;5022856;28;20732;-75
2023/12/29 04:20:52;;;;;;;12.00;5.45;;;;;;;3.79;100.00;100784.81;5025023;28;20037;-74
2023/12/29 04:23:18;;;;;;;1.30;1.27;;;;;;;4.69;100.00;100913.28;5020806;28;20536;-74
2023/12/29 04:25:43;;;;;;;3.72;3.42;;;;;;;3.90;100.00;100785.19;5022190;28;20033;-74
2023/12/29 04:28:09;;;;;;;1.15;1.15;;;;;;;4.56;100.00;100930.19;5019688;28;20057;-75
2023/12/29 04:30:35;;;;;;;0.73;0.73;;;;;;;4.02;100.00;100846.16;5022969;28;20490;-75
2023/12/29 04:33:01;;;;;;;1.40;0.95;;;;;;;4.42;100.00;100917.66;5021544;28;20053;-75
2023/12/29 04:35:26;;;;;;;2.47;2.38;;;;;;;4.55;100.00;100933.63;5019177;28;20573;-74
2023/12/29 04:37:52;;;;;;;0.57;0.57;;;;;;;3.83;100.00;100828.22;5024447;28;20135;-74
2023/12/29 04:40:18;;;;;;;12.98;12.23;;;;;;;3.80;100.00;100831.59;5023080;28;20032;-74
2023/12/29 04:42:43;;;;;;;0.63;0.63;;;;;;;3.84;100.00;100822.22;5023808;28;20057;-74
2023/12/29 04:45:10;;;;;;;1.30;1.20;;;;;;;4.34;100.00;100937.28;5017975;28;20159;-74
2023/12/29 04:47:36;;;;;;;0.30;0.30;;;;;;;3.88;100.00;100847.44;5020372;28;20042;-75
2023/12/29 04:50:02;;;;;;;15.30;9.68;;;;;;;4.13;100.00;100898.47;5013105;28;20053;-74
2023/12/29 04:52:28;;;;;;;3.10;2.90;;;;;;;4.41;100.00;100944.44;5026066;28;20743;-74
2023/12/29 04:54:53;;;;;;;0.65;0.65;;;;;;;4.15;100.00;100928.00;5023385;28;20152;-75
2023/12/29 04:57:19;;;;;;;2.63;2.53;;;;;;;4.10;100.00;100921.75;5019643;28;20059;-75
2023/12/29 04:59:44;;;;;;;1.50;1.40;;;;;;;4.05;100.00;100893.84;5022837;28;20045;-76
2023/12/29 05:02:10;;;;;;;0.65;0.65;;;;;;;4.19;100.00;100931.56;5018569;28;20128;-75
2023/12/29 05:04:37;;;;;;;8.77;8.30;;;;;;;4.11;100.00;100948.59;5020705;28;20413;-75
2023/12/29 05:07:05;;;;;;;2.60;1.60;;;;;;;3.87;100.00;100899.31;5023219;28;20034;-73
2023/12/29 05:09:30;;;;;;;0.40;0.40;;;;;;;3.94;100.00;100919.47;5018766;28;20144;-74
2023/12/29 05:11:56;;;;;;;11.73;5.95;;;;;;;3.46;100.00;100841.63;5019089;28;20046;-74
2023/12/29 05:14:23;;;;;;;4.15;3.85;;;;;;;3.92;100.00;100947.06;5020489;28;20396;-75
2023/12/29 05:16:48;;;;;;;1.65;1.55;;;;;;;3.37;100.00;100837.91;5018692;28;20076;-74
2023/12/29 05:19:16;;;;;;;7.38;6.78;;;;;;;3.93;100.00;100941.94;5019129;28;20034;-73
2023/12/29 05:21:42;;;;;;;0.55;0.55;;;;;;;3.71;100.00;100937.69;5018058;28;20160;-75
2023/12/29 05:24:08;;;;;;;2.70;2.47;;;;;;;3.02;100.00;100810.69;5021963;28;20061;-75
2023/12/29 05:26:33;;;;;;;12.75;12.00;;;;;;;3.55;100.00;100907.69;5017423;28;20056;-76
2023/12/29 05:28:59;;;;;;;1.73;1.65;;;;;;;3.25;100.00;100836.56;5002385;28;20103;-74
2023/12/29 05:31:24;;;;;;;2.67;2.47;;;;;;;3.54;100.00;100947.47;5018115;28;20031;-74
2023/12/29 05:33:50;;;;;;;2.00;1.90;;;;;;;3.24;100.00;100851.22;5018215;28;20049;-75
2023/12/29 05:36:16;;;;;;;0.30;0.30;;;;;;;3.44;100.00;100882.19;5003293;28;20536;-74
2023/12/29 05:38:45;;;;;;;10.93;10.05;;;;;;;3.26;100.00;100859.97;5014244;28;20069;-75
2023/12/29 05:41:13;;;;;;;2.85;2.55;;;;;;;3.52;100.00;100909.31;5022344;28;20084;-75
2023/12/29 05:43:38;;;;;;;1.40;1.33;;;;;;;2.77;100.00;100779.50;5020932;28;20056;-73
2023/12/29 05:46:10;;;;;;;5.65;5.35;;;;;;;2.80;100.00;100821.94;5005695;28;20026;-74
2023/12/29 05:48:35;;;;;;;3.53;3.33;;;;;;;3.49;100.00;100948.09;5019071;28;20037;-75
2023/12/29 05:51:13;;;;;;;5.25;4.95;;;;;;;3.45;100.00;100928.06;5017518;28;20733;-73
2023/12/29 05:53:42;;;;;;;1.05;1.05;;;;;;;2.85;100.00;100861.00;5018716;28;20479;-73
2023/12/29 05:56:11;;;;;;;1.35;1.30;;;;;;;2.85;100.00;100853.22;5021161;28;20491;-74
2023/12/29 05:58:37;;;;;;;1.50;1.42;;;;;;;3.02;100.00;100875.50;5019920;28;20041;-73
2023/12/29 06:01:02;;;;;;;3.90;3.70;;;;;;;3.28;100.00;100933.50;5016860;28;20034;-74
2023/12/29 06:03:28;;;;;;;5.68;5.25;;;;;;;2.78;100.00;100890.09;5019124;28;20033;-75
2023/12/29 06:05:54;;;;;;;1.13;1.13;;;;;;;2.07;100.00;100752.66;5019715;28;20049;-75
2023/12/29 06:08:20;;;;;;;1.95;1.85;;;;;;;3.37;100.00;100983.16;5022046;28;20353;-74
2023/12/29 06:10:45;;;;;;;1.88;1.77;;;;;;;3.32;100.00;100970.81;5021092;28;20025;-74
2023/12/29 06:13:11;;;;;;;25.05;16.75;;;;;;;2.69;100.00;100885.41;5017261;28;20034;-75
2023/12/29 06:15:38;;;;;;;0.73;0.73;;;;;;;3.16;100.00;100965.06;5021043;28;20424;-74
2023/12/29 06:18:04;;;;;;;8.85;8.25;;;;;;;3.11;100.00;100976.97;5020492;28;20042;-74
2023/12/29 06:20:31;;;;;;;10.95;10.13;;;;;;;3.13;100.00;100987.38;5017014;28;20577;-74
2023/12/29 06:22:56;;;;;;;1.95;1.48;;;;;;;2.64;100.00;100884.34;5020730;28;20057;-74
2023/12/29 06:25:22;;;;;;;4.38;4.18;;;;;;;2.79;100.00;100899.63;5025033;28;20112;-73
2023/12/29 06:27:48;;;;;;;9.02;8.23;;;;;;;2.67;100.00;100885.38;5022184;28;20081;-74
2023/12/29 06:30:14;;;;;;;3.25;1.73;;;;;;;2.73;100.00;100900.25;5013012;28;20046;-73
2023/12/29 06:32:40;;;;;;;0.98;0.95;;;;;;;2.83;100.00;100930.00;5016875;28;20063;-74
2023/12/29 06:35:06;;;;;;;2.75;2.58;;;;;;;2.50;100.00;100866.53;5017784;28;20477;-74
2023/12/29 06:37:32;;;;;;;6.95;6.53;;;;;;;2.93;100.00;100930.44;5020808;28;20022;-73
2023/12/29 06:39:58;;;;;;;3.22;2.95;;;;;;;3.11;100.00;100937.16;5018600;28;20648;-75
2023/12/29 06:42:24;;;;;;;0.75;0.75;;;;;;;3.10;100.00;100967.38;5019695;28;20042;-75
2023/12/29 06:44:50;;;;;;;12.45;11.25;;;;;;;3.33;100.00;100959.63;4992132;28;20064;-75
2023/12/29 06:47:15;;;;;;;0.80;0.80;;;;;;;3.24;100.00;100956.69;5013394;28;20037;-75
2023/12/29 06:49:41;;;;;;;8.68;7.97;;;;;;;2.84;100.00;100861.81;5021798;28;20516;-74
2023/12/29 06:52:06;;;;;;;8.90;7.97;;;;;;;3.37;100.00;100951.13;5021750;28;20082;-75
2023/12/29 06:54:34;;;;;;;0.80;0.80;;;;;;;3.33;100.00;100942.34;5018228;28;20064;-74
2023/12/29 06:56:59;;;;;;;8.02;7.63;;;;;;;2.85;100.00;100872.22;5005995;28;20103;-74
2023/12/29 06:59:25;;;;;;;4.80;4.50;;;;;;;3.11;100.00;100899.19;5023739;28;20580;-74
2023/12/29 07:01:51;;;;;;;13.98;4.93;;;;;;;3.03;100.00;100889.34;5024760;28;20482;-74
2023/12/29 07:04:16;;;;;;;1.95;1.85;;;;;;;3.37;100.00;100936.47;5025800;28;20036;-75
2023/12/29 07:06:42;;;;;;;7.78;7.35;;;;;;;2.95;100.00;100878.69;5027191;28;20723;-75
2023/12/29 07:09:09;;;;;;;20.42;19.05;;;;;;;2.93;100.00;100867.38;5026150;28;20076;-74
2023/12/29 07:11:37;;;;;;;5.93;5.40;;;;;;;3.55;100.00;100969.09;5029269;28;20121;-74
2023/12/29 07:14:03;;;;;;;0.88;0.88;;;;;;;3.48;100.00;100935.97;5025627;28;20132;-73
2023/12/29 07:16:29;;;;;;;14.77;13.65;;;;;;;3.50;100.00;100931.72;5030597;28;20128;-75
2023/12/29 07:18:54;;;;;;;6.20;5.88;;;;;;;3.76;100.00;100981.97;5040755;28;20400;-75
2023/12/29 07:21:21;;;;;;;1.63;1.52;;;;;;;3.76;100.00;100980.25;5028831;28;20124;-74
2023/12/29 07:23:48;;;;;;;1.65;1.55;;;;;;;3.19;100.00;100870.06;5042037;28;20041;-74
2023/12/29 07:26:13;;;;;;;2.65;2.45;;;;;;;3.76;100.00;100941.31;5036535;28;20469;-75
2023/12/29 07:28:39;;;;;;;5.60;5.20;;;;;;;3.32;100.00;100867.94;5038469;28;20045;-73
2023/12/29 07:31:04;;;;;;;7.20;4.95;;;;;;;3.72;100.00;100929.09;5031894;28;20497;-74
2023/12/29 07:33:30;;;;;;;1.70;1.60;;;;;;;4.01;100.00;100978.56;5028986;28;20397;-75
2023/12/29 07:35:56;;;;;;;1.45;1.35;;;;;;;3.51;100.00;100886.78;5023466;28;20048;-75
2023/12/29 07:38:21;;;;;;;5.35;4.32;;;;;;;3.94;100.00;100951.50;5016989;28;20045;-74
2023/12/29 07:40:51;;;;;;;0.50;0.50;;;;;;;4.11;100.00;100988.44;5029137;28;20138;-75
2023/12/29 07:43:16;;;;;;;1.17;1.17;;;;;;;3.64;100.00;100891.59;5034960;28;20065;-74
2023/12/29 07:45:43;;;;;;;1.90;1.80;;;;;;;4.29;100.00;100992.53;5024731;28;20515;-75
2023/12/29 07:48:09;;;;;;;4.95;4.70;;;;;;;3.93;100.00;100962.72;5036298;28;20039;-75
2023/12/29 07:50:34;;;;;;;2.92;2.72;;;;;;;4.15;100.00;100994.63;5023302;28;20042;-74
2023/12/29 07:53:02;;;;;;;3.92;3.60;;;;;;;3.97;100.00;100941.19;5034996;28;20049;-73
2023/12/29 07:55:29;;;;;;;2.80;2.70;;;;;;;3.69;100.00;100871.88;5025144;28;20033;-74
2023/12/29 07:57:54;;;;;;;1.88;1.77;;;;;;;4.32;100.00;100974.44;5028974;28;20045;-75
2023/12/29 08:00:20;;;;;;;29.23;20.77;;;;;;;4.35;100.00;100979.72;5015750;28;20382;-74
2023/12/29 08:02:47;;;;;;;5.28;5.03;;;;;;;4.34;100.00;100983.16;5030375;28;20040;-74
2023/12/29 08:05:14;;;;;;;5.90;5.53;;;;;;;3.93;100.00;100921.19;5030902;28;20455;-74
2023/12/29 08:07:40;;;;;;;7.45;6.85;;;;;;;3.74;100.00;100890.19;5027253;28;20029;-75
2023/12/29 08:10:06;;;;;;;5.70;5.10;;;;;;;3.86;100.00;100913.09;5034528;28;20513;-75
2023/12/29 08:12:33;;;;;;;1.15;1.13;;;;;;;4.03;100.00;100901.59;5037324;28;20039;-75
2023/12/29 08:14:59;;;;;;;2.17;1.42;;;;;;;4.57;100.00;101021.22;5038571;28;20039;-74
2023/12/29 08:17:25;;;;;;;1.13;1.10;;;;;;;4.49;100.00;100991.47;5027431;28;20050;-75
2023/12/29 08:19:51;;;;;;;3.28;2.15;;;;;;;3.91;100.00;100909.84;5035913;28;20048;-75
2023/12/29 08:22:16;;;;;;;5.10;4.65;;;;;;;3.96;100.00;100910.91;5034908;28;20021;-75
2023/12/29 08:24:45;;;;;;;6.45;5.97;;;;;;;3.95;100.00;100921.22;5025323;28;20053;-74
2023/12/29 08:27:14;;;;;;;5.72;5.40;;;;;;;4.69;100.00;101015.53;5032694;28;20048;-73
2023/12/29 08:29:40;;;;;;;3.30;3.08;;;;;;;4.30;100.00;100937.13;5039019;28;20469;-75
2023/12/29 08:32:06;;;;;;;6.13;5.65;;;;;;;4.70;100.00;100986.09;5029944;28;20099;-75
2023/12/29 08:34:33;;;;;;;5.13;4.82;;;;;;;4.40;100.00;100923.59;5031103;28;20038;-74
2023/12/29 08:36:59;;;;;;;2.95;2.75;;;;;;;4.58;100.00;100996.97;5030240;28;20041;-74
2023/12/29 08:39:25;;;;;;;1.13;1.10;;;;;;;4.90;100.00;101017.97;5036085;28;20172;-74
2023/12/29 08:41:50;;;;;;;12.98;12.18;;;;;;;4.48;100.00;100940.34;5039570;28;20109;-74
2023/12/29 08:44:16;;;;;;;1.02;1.02;;;;;;;4.80;100.00;100985.59;5033796;28;20120;-75
2023/12/29 08:46:42;;;;;;;2.88;2.70;;;;;;;5.20;100.00;101025.00;5026919;28;20120;-75
2023/12/29 08:49:07;;;;;;;6.50;4.38;;;;;;;4.69;100.00;100939.28;5032053;28;20978;-74
2023/12/29 08:51:33;;;;;;;11.75;10.98;;;;;;;4.72;100.00;100919.47;5028024;28;20041;-73
2023/12/29 08:53:59;;;;;;;1.08;1.02;;;;;;;4.62;100.00;100920.00;5025699;28;20060;-75
2023/12/29 08:56:25;;;;;;;18.02;16.92;;;;;;;4.54;100.00;100873.00;5023538;28;20057;-74
2023/12/29 08:58:50;;;;;;;1.20;1.15;;;;;;;5.49;100.00;101005.94;5024037;28;20139;-75
2023/12/29 09:01:16;;;;;;;13.50;12.27;;;;;;;5.44;100.00;100965.91;5023612;28;20056;-74
2023/12/29 09:03:42;;;;;;;5.63;5.15;;;;;;;5.54;100.00;101000.00;5026852;28;20132;-74
2023/12/29 09:06:08;;;;;;;5.95;5.50;;;;;;;4.97;100.00;100918.50;5017775;28;20211;-75
2023/12/29 09:08:34;;;;;;;2.95;1.98;;;;;;;5.54;100.00;100979.19;5026468;28;20103;-74
2023/12/29 09:11:01;;;;;;;2.67;2.47;;;;;;;5.48;100.00;100956.47;5023822;28;20111;-74
2023/12/29 09:13:27;;;;;;;23.75;21.58;;;;;;;5.45;100.00;100910.38;5020337;28;20034;-74
2023/12/29 09:15:55;;;;;;;6.85;6.15;;;;;;;5.53;100.00;100928.84;5025966;28;20037;-75
2023/12/29 09:18:20;;;;;;;4.50;4.10;;;;;;;6.02;100.00;100984.94;5007611;28;20393;-74
2023/12/29 09:20:47;;;;;;;18.15;16.48;;;;;;;5.48;100.00;100889.69;5026595;28;20048;-75
2023/12/29 09:23:13;;;;;;;1.40;1.30;;;;;;;5.59;100.00;100896.91;5024736;28;20363;-73
2023/12/29 09:25:38;;;;;;;7.68;7.22;;;;;;;6.09;100.00;100992.09;5026038;28;20030;-74
2023/12/29 09:28:04;;;;;;;0.95;0.73;;;;;;;6.00;100.00;100934.53;5018596;28;20224;-76
2023/12/29 09:30:29;;;;;;;1.35;1.27;;;;;;;6.30;100.00;100986.59;5025844;28;20103;-74
2023/12/29 09:32:55;;;;;;;0.73;0.70;;;;;;;6.09;100.00;100894.81;5016091;28;20046;-73
2023/12/29 09:35:21;;;;;;;4.97;4.68;;;;;;;6.08;100.00;100883.50;5024243;28;20049;-75
2023/12/29 09:37:48;;;;;;;14.65;13.50;;;;;;;6.65;100.00;100976.19;5026492;28;20040;-74
2023/12/29 09:40:16;;;;;;;1.85;1.75;;;;;;;6.85;100.00;100988.81;5025378;28;20137;-75
2023/12/29 09:42:44;;;;;;;1.02;1.02;;;;;;;6.17;100.00;100890.69;5015804;28;20324;-75
2023/12/29 09:45:12;;;;;;;8.10;7.38;;;;;;;6.74;100.00;100957.25;5025834;28;20052;-73
2023/12/29 09:47:39;;;;;;;3.00;2.83;;;;;;;6.86;100.00;100964.50;5007146;28;20443;-75
2023/12/29 09:50:07;;;;;;;1.75;1.65;;;;;;;7.00;100.00;100965.72;5021160;28;20053;-76
2023/12/29 09:52:34;;;;;;;1.20;1.10;;;;;;;6.60;100.00;100880.41;5024850;28;20136;-74
2023/12/29 09:55:00;;;;;;;2.40;2.28;;;;;;;7.04;100.00;100933.63;5023187;28;20029;-76
2023/12/29 09:57:26;;;;;;;13.60;11.25;;;;;;;7.05;100.00;100939.75;5023194;28;20111;-74
2023/12/29 09:59:54;;;;;;;2.05;1.95;;;;;;;7.02;100.00;100948.34;5020614;28;20517;-74
2023/12/29 10:02:22;;;;;;;5.43;5.15;;;;;;;6.94;100.00;100872.53;5024477;28;20504;-74
2023/12/29 10:04:47;;;;;;;8.40;8.02;;;;;;;7.19;100.00;100862.63;5025260;28;20048;-74
2023/12/29 10:07:28;;;;;;;2.63;2.53;;;;;;;7.60;100.00;100973.13;5023164;28;20033;-74
2023/12/29 10:09:58;;;;;;;2.55;2.45;;;;;;;7.76;100.00;100943.00;5012456;28;20571;-74
2023/12/29 10:12:24;;;;;;;9.23;8.65;;;;;;;7.33;100.00;100855.97;5023109;28;20038;-74
2023/12/29 10:15:12;;;;;;;3.45;3.13;;;;;;;7.41;100.00;100861.31;5023762;28;20068;-75
2023/12/29 10:18:05;;;;;;;1.50;1.40;;;;;;;8.04;100.00;100967.91;5018370;28;20057;-76
2023/12/29 10:20:57;;;;;;;9.15;8.52;;;;;;;8.02;100.00;100956.56;5025206;28;20615;-74
2023/12/29 10:23:46;;;;;;;2.75;1.75;;;;;;;8.14;100.00;100953.28;5022896;28;20188;-74
2023/12/29 10:26:12;;;;;;;2.95;2.78;;;;;;;8.27;100.00;100916.94;5019379;28;20049;-74
2023/12/29 10:28:37;;;;;;;4.43;4.18;;;;;;;8.02;100.00;100909.50;5024760;28;20121;-76
2023/12/29 10:31:04;;;;;;;2.38;2.28;;;;;;;8.44;100.00;100926.84;5023926;28;20258;-75
2023/12/29 10:33:32;;;;;;;3.15;2.85;;;;;;;8.16;100.00;100904.53;5025148;28;20040;-75
2023/12/29 10:36:03;;;;;;;6.60;5.93;;;;;;;7.94;100.00;100842.31;5019080;28;20045;-75
2023/12/29 10:38:29;;;;;;;13.23;12.13;;;;;;;8.78;100.00;100923.88;5020361;28;20126;-75
2023/12/29 10:41:13;;;;;;;3.03;2.58;;;;;;;9.05;100.00;100926.94;5024488;28;20049;-74
2023/12/29 10:43:40;;;;;;;1.38;1.27;;;;;;;8.74;100.00;100826.19;5018421;28;20117;-75
2023/12/29 10:46:10;;;;;;;1.38;1.27;;;;;;;9.11;100.00;100834.53;5019612;28;20120;-74
2023/12/29 10:48:37;;;;;;;1.02;1.00;;;;;;;9.47;100.00;100902.19;5024901;28;20091;-77
2023/12/29 10:51:04;;;;;;;0.57;0.57;;;;;;;9.41;100.00;100891.66;5024203;28;20053;-74
2023/12/29 10:53:33;;;;;;;10.38;9.73;;;;;;;9.64;100.00;100918.09;5016014;28;20160;-75
2023/12/29 10:55:59;;;;;;;4.60;4.30;;;;;;;9.76;100.00;100903.38;5017294;28;20132;-75
2023/12/29 10:58:29;;;;;;;1.48;1.38;;;;;;;9.68;100.00;100840.41;5007726;28;20041;-74
2023/12/29 11:00:57;;;;;;;0.88;0.88;;;;;;;10.01;100.00;100828.50;5014027;28;20064;-74
2023/12/29 11:03:26;;;;;;;1.85;1.75;;;;;;;10.39;100.00;100881.31;5023647;28;20104;-75
2023/12/29 11:06:01;;;;;;;2.85;2.60;;;;;;;10.70;100.00;100890.31;5022502;28;20110;-74
2023/12/29 11:08:27;;;;;;;8.13;7.72;;;;;;;11.01;100.00;100873.88;5019297;28;20485;-74
2023/12/29 11:10:55;;;;;;;3.67;3.42;;;;;;;10.87;100.00;100864.16;5021689;28;20064;-75
2023/12/29 11:13:21;;;;;;;1.27;1.20;;;;;;;11.10;100.00;100861.69;5005843;28;20455;-75
2023/12/29 11:15:48;;;;;;;0.90;0.90;;;;;;;10.46;100.00;100807.03;5017773;28;20056;-75
2023/12/29 11:18:15;;;;;;;1.75;1.17;;;;;;;10.29;100.00;100806.91;5023157;28;20064;-74
2023/12/29 11:20:42;;;;;;;9.35;6.88;;;;;;;10.23;100.00;100793.75;5020326;28;20183;-75
2023/12/29 11:23:09;;;;;;;6.47;5.78;;;;;;;10.95;100.00;100878.19;5024388;28;20484;-75